createdAt,value
2022-11-02T00:00:39.332Z,101323.91
2022-11-02T00:03:05.841Z,101327.69
2022-11-02T00:05:32.679Z,101327.06
2022-11-02T00:07:59.027Z,101332.47
2022-11-02T00:10:25.289Z,101336.22
2022-11-02T00:12:51.722Z,101333.75
2022-11-02T00:15:18.122Z,101337.53
2022-11-02T00:17:44.458Z,101335.88
2022-11-02T00:20:10.876Z,101339.66
2022-11-02T00:22:37.310Z,101337.97
2022-11-02T00:25:03.770Z,101343.38
2022-11-02T00:27:30.264Z,101345.28
2022-11-02T00:29:56.520Z,101337.97
2022-11-02T00:32:22.940Z,101335.28
2022-11-02T00:34:49.552Z,101340.94
2022-11-02T00:37:15.984Z,101327.66
2022-11-02T00:39:42.324Z,101333.88
2022-11-02T00:42:08.610Z,101330.59
2022-11-02T00:44:34.925Z,101331.78
2022-11-02T00:47:01.337Z,101338.25
2022-11-02T00:49:27.680Z,101334.94
2022-11-02T00:51:53.960Z,101334.72
2022-11-02T00:54:24.478Z,101328.47
2022-11-02T00:56:53.892Z,101335.16
2022-11-02T00:59:20.328Z,101327.06
2022-11-02T01:01:46.643Z,101328.47
2022-11-02T01:04:13.928Z,101340.94
2022-11-02T01:06:40.380Z,101333.88
2022-11-02T01:09:06.795Z,101334.72
2022-11-02T01:11:33.158Z,101336.00
2022-11-02T01:13:59.535Z,101327.91
2022-11-02T01:16:26.120Z,101324.75
2022-11-02T01:18:52.402Z,101328.13
2022-11-02T01:21:18.746Z,101322.72
2022-11-02T01:23:45.055Z,101317.09
2022-11-02T01:26:11.722Z,101326.25
2022-11-02T01:28:38.169Z,101325.41
2022-11-02T01:31:04.534Z,101326.50
2022-11-02T01:33:30.927Z,101325.66
2022-11-02T01:35:57.391Z,101320.25
2022-11-02T01:38:23.812Z,101335.38
2022-11-02T01:40:51.852Z,101332.69
2022-11-02T01:43:18.682Z,101326.94
2022-11-02T01:45:45.134Z,101318.84
2022-11-02T01:48:11.542Z,101314.28
2022-11-02T01:50:38.019Z,101311.56
2022-11-02T01:53:04.390Z,101313.22
2022-11-02T01:55:30.938Z,101310.50
2022-11-02T01:57:57.264Z,101304.50
2022-11-02T02:00:23.632Z,101304.50
2022-11-02T02:02:50.032Z,101298.75
2022-11-02T02:05:16.430Z,101289.59
2022-11-02T02:07:43.230Z,101297.91
2022-11-02T02:10:09.616Z,101294.66
2022-11-02T02:12:36.088Z,101290.09
2022-11-02T02:15:02.588Z,101298.75
2022-11-02T02:17:29.084Z,101304.88
2022-11-02T02:19:55.910Z,101305.69
2022-11-02T02:22:22.354Z,101303.81
2022-11-02T02:24:48.748Z,101304.03
2022-11-02T02:27:15.120Z,101312.13
2022-11-02T02:29:41.543Z,101318.38
2022-11-02T02:32:07.858Z,101320.00
2022-11-02T02:34:34.127Z,101314.00
2022-11-02T02:37:00.871Z,101316.13
2022-11-02T02:39:27.456Z,101311.53
2022-11-02T02:41:53.898Z,101309.09
2022-11-02T02:44:20.194Z,101308.47
2022-11-02T02:46:46.823Z,101304.97
2022-11-02T02:49:13.091Z,101294.41
2022-11-02T02:51:39.719Z,101298.75
2022-11-02T02:54:06.345Z,101306.84
2022-11-02T02:56:32.910Z,101301.09
2022-11-02T02:58:59.382Z,101295.44
2022-11-02T03:01:25.717Z,101300.59
2022-11-02T03:03:52.314Z,101306.22
2022-11-02T03:06:18.543Z,101301.31
2022-11-02T03:08:45.047Z,101300.72
2022-11-02T03:11:11.366Z,101305.06
2022-11-02T03:13:37.696Z,101306.09
2022-11-02T03:16:03.991Z,101311.28
2022-11-02T03:18:30.336Z,101309.03
2022-11-02T03:20:56.655Z,101297.44
2022-11-02T03:23:23.023Z,101303.63
2022-11-02T03:25:49.466Z,101310.09
2022-11-02T03:28:15.704Z,101311.38
2022-11-02T03:30:42.002Z,101310.56
2022-11-02T03:33:09.299Z,101310.81
2022-11-02T03:35:35.719Z,101303.50
2022-11-02T03:38:02.401Z,101302.94
2022-11-02T03:40:29.049Z,101302.72
2022-11-02T03:42:55.559Z,101302.09
2022-11-02T03:45:21.789Z,101301.03
2022-11-02T03:47:48.073Z,101299.84
2022-11-02T03:50:14.617Z,101298.81
2022-11-02T03:52:41.222Z,101296.94
2022-11-02T03:55:07.491Z,101305.50
2022-11-02T03:57:33.741Z,101298.44
2022-11-02T03:59:59.987Z,101305.50
2022-11-02T04:02:26.566Z,101300.91
2022-11-02T04:04:52.873Z,101297.63
2022-11-02T04:07:19.225Z,101301.16
2022-11-02T04:09:45.524Z,101299.50
2022-11-02T04:12:11.902Z,101295.97
2022-11-02T04:14:38.401Z,101303.50
2022-11-02T04:17:04.703Z,101299.72
2022-11-02T04:19:30.937Z,101296.22
2022-11-02T04:21:57.370Z,101301.38
2022-11-02T04:24:23.754Z,101306.19
2022-11-02T04:26:50.035Z,101305.59
2022-11-02T04:29:16.424Z,101302.91
2022-11-02T04:31:42.706Z,101299.16
2022-11-02T04:34:09.022Z,101308.31
2022-11-02T04:36:35.294Z,101308.53
2022-11-02T04:39:01.711Z,101304.16
2022-11-02T04:41:27.983Z,101302.31
2022-11-02T04:43:54.248Z,101293.38
2022-11-02T04:46:20.555Z,101292.78
2022-11-02T04:48:46.920Z,101299.81
2022-11-02T04:51:13.243Z,101295.25
2022-11-02T04:53:41.067Z,101291.38
2022-11-02T04:56:07.393Z,101291.97
2022-11-02T04:58:33.716Z,101294.88
2022-11-02T05:01:00.051Z,101294.09
2022-11-02T05:03:26.553Z,101291.59
2022-11-02T05:05:52.867Z,101303.22
2022-11-02T05:08:22.472Z,101300.75
2022-11-02T05:10:48.752Z,101302.19
2022-11-02T05:13:15.259Z,101309.44
2022-11-02T05:15:41.559Z,101305.31
2022-11-02T05:18:08.262Z,101312.13
2022-11-02T05:20:34.720Z,101314.25
2022-11-02T05:23:01.317Z,101314.25
2022-11-02T05:25:27.872Z,101313.41
2022-11-02T05:27:54.549Z,101312.34
2022-11-02T05:30:20.868Z,101308.84
2022-11-02T05:32:47.260Z,101306.38
2022-11-02T05:35:13.576Z,101308.03
2022-11-02T05:37:39.929Z,101314.69
2022-11-02T05:40:06.232Z,101315.75
2022-11-02T05:42:32.518Z,101314.47
2022-11-02T05:44:58.804Z,101323.84
2022-11-02T05:47:25.208Z,101318.47
2022-11-02T05:49:51.474Z,101320.31
2022-11-02T05:52:17.920Z,101320.31
2022-11-02T05:54:44.215Z,101314.94
2022-11-02T05:57:10.614Z,101323.63
2022-11-02T05:59:36.872Z,101324.06
2022-11-02T06:02:03.298Z,101316.34
2022-11-02T06:04:29.669Z,101323.41
2022-11-02T06:06:55.979Z,101315.31
2022-11-02T06:09:22.351Z,101318.00
2022-11-02T06:11:48.628Z,101327.34
2022-11-02T06:14:15.059Z,101325.31
2022-11-02T06:16:41.467Z,101314.94
2022-11-02T06:19:07.782Z,101315.16
2022-11-02T06:21:34.143Z,101320.16
2022-11-02T06:24:00.536Z,101317.63
2022-11-02T06:26:26.916Z,101317.63
2022-11-02T06:28:53.256Z,101324.50
2022-11-02T06:31:19.622Z,101332.81
2022-11-02T06:33:45.852Z,101335.75
2022-11-02T06:36:12.160Z,101330.38
2022-11-02T06:38:38.488Z,101329.47
2022-11-02T06:41:04.787Z,101325.13
2022-11-02T06:43:31.079Z,101325.72
2022-11-02T06:45:57.344Z,101331.53
2022-11-02T06:48:23.654Z,101335.94
2022-11-02T06:50:49.891Z,101337.19
2022-11-02T06:53:16.271Z,101335.50
2022-11-02T06:55:42.536Z,101342.78
2022-11-02T06:58:08.891Z,101337.25
2022-11-02T07:00:35.226Z,101334.56
2022-11-02T07:03:01.912Z,101343.47
2022-11-02T07:05:28.303Z,101342.88
2022-11-02T07:07:54.647Z,101342.88
2022-11-02T07:10:21.131Z,101344.31
2022-11-02T07:12:47.509Z,101348.28
2022-11-02T07:15:13.802Z,101343.69
2022-11-02T07:17:40.087Z,101343.09
2022-11-02T07:20:06.468Z,101349.56
2022-11-02T07:22:32.960Z,101347.88
2022-11-02T07:24:59.361Z,101355.41
2022-11-02T07:27:25.640Z,101350.84
2022-11-02T07:29:51.928Z,101348.94
2022-11-02T07:32:18.284Z,101350.22
2022-11-02T07:34:44.740Z,101345.66
2022-11-02T07:37:11.056Z,101348.38
2022-11-02T07:39:37.449Z,101345.66
2022-11-02T07:42:07.229Z,101354.78
2022-11-02T07:44:33.570Z,101362.88
2022-11-02T07:46:59.841Z,101361.00
2022-11-02T07:49:26.240Z,101355.84
2022-11-02T07:51:52.830Z,101352.09
2022-11-02T07:54:19.669Z,101353.97
2022-11-02T07:56:46.063Z,101344.25
2022-11-02T07:59:12.423Z,101344.25
2022-11-02T08:01:38.811Z,101338.03
2022-11-02T08:04:05.218Z,101340.94
2022-11-02T08:06:31.576Z,101342.84
2022-11-02T08:08:57.908Z,101343.41
2022-11-02T08:11:24.207Z,101337.88
2022-11-02T08:13:50.528Z,101341.78
2022-11-02T08:16:16.898Z,101334.75
2022-11-02T08:18:43.229Z,101339.88
2022-11-02T08:21:09.566Z,101344.25
2022-11-02T08:23:35.846Z,101344.47
2022-11-02T08:26:02.110Z,101355.03
2022-11-02T08:28:28.410Z,101350.94
2022-11-02T08:30:54.739Z,101354.66
2022-11-02T08:33:21.186Z,101364.63
2022-11-02T08:35:47.499Z,101357.34
2022-11-02T08:38:13.863Z,101355.72
2022-11-02T08:40:40.151Z,101354.06
2022-11-02T08:43:06.468Z,101356.53
2022-11-02T08:45:54.211Z,101355.47
2022-11-02T08:48:19.454Z,101358.41
2022-11-02T08:50:45.824Z,101357.34
2022-11-02T08:53:12.565Z,101354.06
2022-11-02T08:55:39.067Z,101361.31
2022-11-02T08:58:05.889Z,101349.47
2022-11-02T09:00:32.642Z,101353.22
2022-11-02T09:02:59.231Z,101361.53
2022-11-02T09:05:25.610Z,101345.97
2022-11-02T09:07:51.930Z,101356.16
2022-11-02T09:10:18.235Z,101357.81
2022-11-02T09:12:44.892Z,101359.69
2022-11-02T09:15:11.187Z,101357.34
2022-11-02T09:17:37.739Z,101352.44
2022-11-02T09:20:03.992Z,101360.50
2022-11-02T09:22:30.288Z,101361.31
2022-11-02T09:24:56.692Z,101364.25
2022-11-02T09:27:23.025Z,101365.91
2022-11-02T09:29:49.482Z,101371.06
2022-11-02T09:32:15.740Z,101365.06
2022-11-02T09:34:42.080Z,101364.25
2022-11-02T09:37:08.510Z,101364.84
2022-11-02T09:39:34.806Z,101359.69
2022-11-02T09:42:01.266Z,101369.41
2022-11-02T09:44:27.681Z,101368.59
2022-11-02T09:47:27.763Z,101371.53
2022-11-02T09:49:40.286Z,101377.72
2022-11-02T09:52:07.136Z,101372.56
2022-11-02T09:54:33.490Z,101372.31
2022-11-02T09:56:59.991Z,101370.47
2022-11-02T09:59:26.385Z,101368.81
2022-11-02T10:01:52.869Z,101377.72
2022-11-02T10:04:19.233Z,101383.34
2022-11-02T10:06:45.544Z,101379.41
2022-11-02T10:09:11.959Z,101383.13
2022-11-02T10:14:09.766Z,101376.31
2022-11-02T10:16:36.027Z,101374.66
2022-11-02T10:19:02.313Z,101374.66
2022-11-02T10:21:28.600Z,101376.09
2022-11-02T10:23:55.093Z,101372.31
2022-11-02T10:26:21.440Z,101376.09
2022-11-02T10:28:47.771Z,101366.56
2022-11-02T10:31:15.721Z,101371.75
2022-11-02T10:33:42.228Z,101364.72
2022-11-02T10:36:23.954Z,101375.50
2022-11-02T10:38:50.399Z,101373.81
2022-11-02T10:41:16.671Z,101369.03
2022-11-02T10:43:43.839Z,101366.34
2022-11-02T10:46:11.514Z,101371.97
2022-11-02T10:48:37.874Z,101375.50
2022-11-02T10:51:04.157Z,101381.13
2022-11-02T10:53:46.278Z,101378.41
2022-11-02T10:56:12.840Z,101373.81
2022-11-02T10:58:39.099Z,101380.06
2022-11-02T11:01:05.714Z,101383.81
2022-11-02T11:03:32.082Z,101382.53
2022-11-02T11:05:58.565Z,101384.16
2022-11-02T11:08:25.009Z,101382.75
2022-11-02T11:10:51.325Z,101388.72
2022-11-02T11:16:04.018Z,101383.59
2022-11-02T11:21:16.810Z,101392.13
2022-11-02T11:23:43.182Z,101386.28
2022-11-02T11:26:09.539Z,101385.22
2022-11-02T11:28:35.836Z,101388.38
2022-11-02T11:31:02.182Z,101395.66
2022-11-02T11:33:28.499Z,101385.44
2022-11-02T11:35:54.780Z,101394.59
2022-11-02T11:38:21.090Z,101379.69
2022-11-02T11:40:47.427Z,101381.34
2022-11-02T11:45:42.933Z,101374.88
2022-11-02T11:48:10.249Z,101378.41
2022-11-02T11:50:36.644Z,101377.56
2022-11-02T11:53:11.707Z,101375.94
2022-11-02T11:55:37.983Z,101376.78
2022-11-02T11:58:04.697Z,101371.38
2022-11-02T12:00:31.237Z,101375.94
2022-11-02T12:02:57.881Z,101377.00
2022-11-02T12:08:03.977Z,101373.81
2022-11-02T12:10:30.365Z,101374.88
2022-11-02T12:12:56.770Z,101371.59
2022-11-02T12:15:23.310Z,101370.53
2022-11-02T12:17:49.697Z,101373.47
2022-11-02T12:20:16.331Z,101370.53
2022-11-02T12:22:42.654Z,101373.47
2022-11-02T12:25:08.897Z,101371.59
2022-11-02T12:27:35.379Z,101374.31
2022-11-02T12:30:01.779Z,101376.38
2022-11-02T12:35:23.483Z,101380.50
2022-11-02T12:37:49.597Z,101383.19
2022-11-02T12:40:15.998Z,101385.09
2022-11-02T12:42:43.351Z,101384.47
2022-11-02T12:45:09.870Z,101381.78
2022-11-02T12:47:36.194Z,101382.81
2022-11-02T12:50:02.495Z,101379.28
2022-11-02T12:52:28.822Z,101374.16
2022-11-02T12:54:55.168Z,101382.25
2022-11-02T12:57:21.557Z,101382.81
2022-11-02T12:59:47.907Z,101379.06
2022-11-02T13:02:14.313Z,101382.00
2022-11-02T13:04:40.676Z,101374.38
2022-11-02T13:07:07.096Z,101378.94
2022-11-02T13:09:33.490Z,101381.63
2022-11-02T13:11:59.768Z,101374.38
2022-11-02T13:14:26.076Z,101375.56
2022-11-02T13:16:52.392Z,101375.56
2022-11-02T13:19:18.693Z,101375.56
2022-11-02T13:21:45.097Z,101384.94
2022-11-02T13:24:11.495Z,101378.03
2022-11-02T13:26:37.978Z,101376.38
2022-11-02T13:29:04.284Z,101379.22
2022-11-02T13:31:30.604Z,101388.16
2022-11-02T13:33:56.878Z,101382.97
2022-11-02T13:36:23.381Z,101385.22
2022-11-02T13:38:50.125Z,101390.00
2022-11-02T13:41:16.520Z,101392.69
2022-11-02T13:43:43.012Z,101390.84
2022-11-02T13:46:09.349Z,101393.91
2022-11-02T13:48:35.875Z,101386.66
2022-11-02T13:51:02.262Z,101392.41
2022-11-02T13:53:28.586Z,101391.50
2022-11-02T13:55:55.309Z,101392.13
2022-11-02T13:58:21.670Z,101400.34
2022-11-02T14:00:48.070Z,101394.97
2022-11-02T14:03:14.635Z,101392.25
2022-11-02T14:05:41.144Z,101391.69
2022-11-02T14:08:08.013Z,101399.78
2022-11-02T14:10:34.767Z,101388.97
2022-11-02T14:13:01.136Z,101396.59
2022-11-02T14:15:27.767Z,101394.97
2022-11-02T14:17:54.279Z,101396.59
2022-11-02T14:20:20.642Z,101393.91
2022-11-02T14:22:47.060Z,101396.59
2022-11-02T14:25:13.433Z,101396.59
2022-11-02T14:27:40.139Z,101399.91
2022-11-02T14:30:06.450Z,101400.34
2022-11-02T14:32:32.714Z,101402.22
2022-11-02T14:34:59.091Z,101410.31
2022-11-02T14:37:25.476Z,101407.59
2022-11-02T14:39:51.796Z,101396.81
2022-11-02T14:42:18.080Z,101405.97
2022-11-02T14:44:44.472Z,101402.00
2022-11-02T14:47:10.858Z,101394.38
2022-11-02T14:49:37.264Z,101403.28
2022-11-02T14:52:04.655Z,101406.19
2022-11-02T14:54:31.409Z,101403.28
2022-11-02T14:56:58.215Z,101401.84
2022-11-02T14:59:24.492Z,101392.34
2022-11-02T15:01:50.786Z,101400.22
2022-11-02T15:04:17.335Z,101404.53
2022-11-02T15:06:43.783Z,101402.28
2022-11-02T15:09:10.155Z,101405.81
2022-11-02T15:11:36.668Z,101412.28
2022-11-02T15:14:02.930Z,101413.06
2022-11-02T15:16:29.261Z,101417.44
2022-11-02T15:18:55.758Z,101420.13
2022-11-02T15:21:22.042Z,101426.81
2022-11-02T15:23:48.363Z,101439.22
2022-11-02T15:26:14.800Z,101436.31
2022-11-02T15:28:41.127Z,101443.34
2022-11-02T15:31:07.751Z,101442.31
2022-11-02T15:33:34.070Z,101444.41
2022-11-02T15:36:00.436Z,101451.66
2022-11-02T15:38:32.540Z,101447.09
2022-11-02T15:41:05.973Z,101450.59
2022-11-02T15:43:32.667Z,101452.03
2022-11-02T15:46:03.564Z,101457.66
2022-11-02T15:48:33.197Z,101467.63
2022-11-02T15:50:59.491Z,101474.06
2022-11-02T15:53:25.851Z,101467.63
2022-11-02T15:55:52.149Z,101469.69
2022-11-02T15:58:21.275Z,101478.03
2022-11-02T16:00:47.652Z,101480.47
2022-11-02T16:03:14.752Z,101474.72
2022-11-02T16:05:41.220Z,101486.72
2022-11-02T16:08:11.358Z,101493.16
2022-11-02T16:10:37.986Z,101492.25
2022-11-02T16:13:04.282Z,101494.22
2022-11-02T16:15:30.623Z,101495.88
2022-11-02T16:17:56.962Z,101498.78
2022-11-02T16:20:23.404Z,101495.50
2022-11-02T16:22:49.873Z,101498.19
2022-11-02T16:25:16.162Z,101497.13
2022-11-02T16:27:42.496Z,101502.75
2022-11-02T16:30:08.903Z,101499.22
2022-11-02T16:32:35.229Z,101501.53
2022-11-02T16:35:01.506Z,101499.69
2022-11-02T16:37:27.931Z,101498.00
2022-11-02T16:39:54.421Z,101489.69
2022-11-02T16:42:20.707Z,101493.88
2022-11-02T16:44:47.073Z,101502.38
2022-11-02T16:47:13.458Z,101505.28
2022-11-02T16:49:39.948Z,101502.81
2022-11-02T16:52:06.346Z,101503.41
2022-11-02T16:54:32.818Z,101511.69
2022-11-02T16:56:59.113Z,101512.53
2022-11-02T16:59:25.545Z,101521.06
2022-11-02T17:01:51.938Z,101518.97
2022-11-02T17:04:18.303Z,101525.03
2022-11-02T17:06:44.619Z,101534.53
2022-11-02T17:09:11.060Z,101527.28
2022-11-02T17:11:37.568Z,101540.97
2022-11-02T17:14:04.069Z,101542.03
2022-11-02T17:16:30.455Z,101541.19
2022-11-02T17:18:56.742Z,101533.94
2022-11-02T17:21:23.059Z,101545.78
2022-11-02T17:23:49.574Z,101546.59
2022-11-02T17:26:15.885Z,101545.78
2022-11-02T17:28:42.458Z,101546.59
2022-11-02T17:31:08.998Z,101549.97
2022-11-02T17:33:35.540Z,101549.28
2022-11-02T17:36:01.947Z,101555.34
2022-11-02T17:38:28.268Z,101546.44
2022-11-02T17:40:54.654Z,101549.97
2022-11-02T17:43:21.003Z,101557.59
2022-11-02T17:45:47.328Z,101555.13
2022-11-02T17:48:13.685Z,101564.25
2022-11-02T17:50:39.983Z,101573.22
2022-11-02T17:53:06.379Z,101569.47
2022-11-02T17:55:32.700Z,101569.25
2022-11-02T17:57:59.023Z,101575.97
2022-11-02T18:00:25.335Z,101578.81
2022-11-02T18:02:51.741Z,101573.00
2022-11-02T18:05:18.052Z,101576.97
2022-11-02T18:07:44.412Z,101578.78
2022-11-02T18:10:10.748Z,101579.00
2022-11-02T18:12:37.129Z,101586.91
2022-11-02T18:15:03.759Z,101577.19
2022-11-02T18:17:34.789Z,101576.13
2022-11-02T18:20:01.635Z,101579.44
2022-11-02T18:22:28.316Z,101578.81
2022-11-02T18:24:54.640Z,101578.81
2022-11-02T18:27:23.678Z,101574.06
2022-11-02T18:29:51.238Z,101582.34
2022-11-02T18:32:17.676Z,101582.78
2022-11-02T18:34:44.242Z,101590.88
2022-11-02T18:37:10.584Z,101592.34
2022-11-02T18:39:37.067Z,101602.06
2022-11-02T18:42:03.478Z,101588.16
2022-11-02T18:44:29.790Z,101593.19
2022-11-02T18:46:56.107Z,101592.72
2022-11-02T18:49:22.461Z,101601.44
2022-11-02T18:51:48.739Z,101595.88
2022-11-02T18:54:15.059Z,101592.72
2022-11-02T18:56:41.640Z,101595.66
2022-11-02T18:59:08.204Z,101586.94
2022-11-02T19:01:34.713Z,101589.22
2022-11-02T19:04:01.194Z,101591.09
2022-11-02T19:06:27.526Z,101582.66
2022-11-02T19:08:53.842Z,101594.69
2022-11-02T19:11:20.131Z,101586.41
2022-11-02T19:13:46.561Z,101592.38
2022-11-02T19:16:12.847Z,101591.13
2022-11-02T19:18:39.316Z,101597.94
2022-11-02T19:21:05.626Z,101592.56
2022-11-02T19:23:31.909Z,101594.91
2022-11-02T19:25:58.231Z,101600.91
2022-11-02T19:28:24.576Z,101594.50
2022-11-02T19:30:50.917Z,101601.94
2022-11-02T19:33:17.226Z,101599.63
2022-11-02T19:35:43.574Z,101599.22
2022-11-02T19:38:09.910Z,101596.50
2022-11-02T19:40:36.195Z,101604.22
2022-11-02T19:43:02.912Z,101596.94
2022-11-02T19:45:29.534Z,101592.19
2022-11-02T19:47:55.977Z,101587.38
2022-11-02T19:50:22.890Z,101599.88
2022-11-02T19:52:49.270Z,101593.88
2022-11-02T19:55:15.625Z,101590.78
2022-11-02T19:57:41.919Z,101596.38
2022-11-02T20:00:08.241Z,101596.94
2022-11-02T20:02:34.624Z,101595.28
2022-11-02T20:05:01.019Z,101601.09
2022-11-02T20:07:27.397Z,101607.75
2022-11-02T20:09:57.154Z,101606.13
2022-11-02T20:12:25.103Z,101607.13
2022-11-02T20:14:51.458Z,101613.16
2022-11-02T20:17:31.172Z,101609.84
2022-11-02T20:19:59.911Z,101611.09
2022-11-02T20:22:26.240Z,101615.63
2022-11-02T20:24:52.602Z,101615.84
2022-11-02T20:27:18.956Z,101617.28
2022-11-02T20:29:45.208Z,101619.75
2022-11-02T20:32:11.473Z,101613.78
2022-11-02T20:34:37.905Z,101623.28
2022-11-02T20:37:04.251Z,101627.06
2022-11-02T20:39:30.709Z,101628.72
2022-11-02T20:41:56.989Z,101628.72
2022-11-02T20:44:23.392Z,101630.19
2022-11-02T20:46:53.073Z,101633.28
2022-11-02T20:49:21.688Z,101628.25
2022-11-02T20:51:55.544Z,101633.91
2022-11-02T20:54:21.910Z,101634.28
2022-11-02T20:56:48.215Z,101626.59
2022-11-02T20:59:14.654Z,101637.81
2022-11-02T21:01:41.200Z,101637.41
2022-11-02T21:04:07.889Z,101636.38
2022-11-02T21:06:34.201Z,101637.41
2022-11-02T21:09:00.813Z,101644.03
2022-11-02T21:11:27.611Z,101650.66
2022-11-02T21:13:53.931Z,101646.53
2022-11-02T21:16:20.262Z,101641.78
2022-11-02T21:18:46.516Z,101645.09
2022-11-02T21:21:12.910Z,101641.81
2022-11-02T21:23:39.283Z,101648.19
2022-11-02T21:26:05.574Z,101644.03
2022-11-02T21:28:31.952Z,101645.47
2022-11-02T21:31:00.074Z,101639.72
2022-11-02T21:33:28.026Z,101646.94
2022-11-02T21:35:54.418Z,101650.28
2022-11-02T21:38:20.745Z,101649.88
2022-11-02T21:40:47.199Z,101644.72
2022-11-02T21:43:14.036Z,101646.53
2022-11-02T21:45:40.403Z,101648.38
2022-11-02T21:48:06.690Z,101652.97
2022-11-02T21:50:33.103Z,101656.28
2022-11-02T21:52:59.614Z,101654.03
2022-11-02T21:55:25.931Z,101657.97
2022-11-02T21:57:52.353Z,101654.81
2022-11-02T22:00:18.732Z,101657.72
2022-11-02T22:02:45.187Z,101656.09
2022-11-02T22:05:11.545Z,101661.47
2022-11-02T22:07:38.340Z,101659.63
2022-11-02T22:10:04.828Z,101661.25
2022-11-02T22:12:31.328Z,101663.97
2022-11-02T22:14:57.647Z,101666.25
2022-11-02T22:17:50.368Z,101662.53
2022-11-02T22:20:10.502Z,101660.03
2022-11-02T22:22:36.829Z,101660.03
2022-11-02T22:25:03.241Z,101663.38
2022-11-02T22:27:29.603Z,101661.69
2022-11-02T22:29:55.948Z,101657.72
2022-11-02T22:32:22.200Z,101663.97
2022-11-02T22:34:48.523Z,101658.78
2022-11-02T22:37:14.870Z,101652.13
2022-11-02T22:39:41.253Z,101656.31
2022-11-02T22:42:07.538Z,101652.59
2022-11-02T22:44:33.835Z,101660.03
2022-11-02T22:47:00.123Z,101656.72
2022-11-02T22:49:26.472Z,101662.53
2022-11-02T22:51:52.824Z,101657.53
2022-11-02T22:54:19.319Z,101661.06
2022-11-02T22:56:45.674Z,101664.81
2022-11-02T22:59:11.968Z,101663.34
2022-11-02T23:01:38.453Z,101649.88
2022-11-02T23:04:05.288Z,101650.31
2022-11-02T23:06:32.044Z,101651.34
2022-11-02T23:09:01.322Z,101654.25
2022-11-02T23:11:27.868Z,101650.31
2022-11-02T23:13:54.227Z,101648.41
2022-11-02T23:16:20.497Z,101647.81
2022-11-02T23:18:46.941Z,101648.41
2022-11-02T23:21:13.337Z,101634.16
2022-11-02T23:23:39.872Z,101636.41
2022-11-02T23:26:06.237Z,101639.91
2022-11-02T23:28:32.523Z,101638.28
2022-11-02T23:30:58.835Z,101638.88
2022-11-02T23:33:25.524Z,101635.97
2022-11-02T23:35:51.836Z,101633.09
2022-11-02T23:38:18.460Z,101637.66
2022-11-02T23:40:44.732Z,101644.50
2022-11-02T23:43:11.022Z,101645.34
2022-11-02T23:45:37.439Z,101645.34
2022-11-02T23:48:03.946Z,101641.38
2022-11-02T23:50:30.462Z,101629.81
2022-11-02T23:52:56.759Z,101634.94
2022-11-02T23:55:23.173Z,101633.72
2022-11-02T23:57:49.712Z,101637.25
